Time;durP1;ratioP1;P1;durP2;ratioP2;P2;SDS_P1;SDS_P2;PMS_P1;PMS_P2;Temp;Humidity;BMP_temperature;BMP_pressure;BME280_temperature;BME280_humidity;BME280_pressure;Samples;Min_cycle;Max_cycle;Signal;HPM_P1;HPM_P2
2022/06/09 00:01:14;;;;;;;;;;;;;;;14.93;100.00;100038.06;5068820;28;19948;-81
2022/06/09 00:03:49;;;;;;;;;;;;;;;14.95;100.00;100026.78;5070139;28;19925;-82
2022/06/09 00:06:23;;;;;;;;;;;;;;;14.84;100.00;100037.28;5065476;28;20249;-78
2022/06/09 00:09:00;;;;;;;;;;;;;;;14.83;100.00;100035.69;5066907;28;19929;-78
2022/06/09 00:11:28;;;;;;;;;;;;;;;14.78;100.00;100031.16;5085471;28;20461;-79
2022/06/09 00:13:56;;;;;;;;;;;;;;;14.86;100.00;100037.75;5067719;28;20003;-78
2022/06/09 00:16:29;;;;;;;;;;;;;;;14.86;100.00;100035.03;5074063;28;19936;-79
2022/06/09 00:18:57;;;;;;;;;;;;;;;14.85;100.00;100038.09;5068841;28;19935;-79
2022/06/09 00:21:30;;;;;;;;;;;;;;;14.81;100.00;100042.59;5068462;28;19928;-78
2022/06/09 00:24:05;;;;;;;;;;;;;;;14.74;100.00;100040.34;5063775;28;19925;-77
2022/06/09 00:26:38;;;;;;;;;;;;;;;14.81;100.00;100048.09;5070134;28;19935;-79
2022/06/09 00:29:12;;;;;;;;;;;;;;;14.81;100.00;100045.34;5080596;28;19932;-78
2022/06/09 00:31:45;;;;;;;;;;;;;;;14.86;100.00;100040.50;5071266;28;19928;-78
2022/06/09 00:34:18;;;;;;;;;;;;;;;14.88;100.00;100038.22;5078424;28;19932;-78
2022/06/09 00:36:50;;;;;;;;;;;;;;;14.86;100.00;100040.50;5058982;28;19940;-78
2022/06/09 00:39:25;;;;;;;;;;;;;;;14.88;100.00;100035.50;5067317;28;19933;-79
2022/06/09 00:41:58;;;;;;;;;;;;;;;14.87;100.00;100041.28;5069710;28;19932;-78
2022/06/09 00:44:27;;;;;;;;;;;;;;;14.89;100.00;100045.31;5087998;28;19930;-78
2022/06/09 00:47:02;;;;;;;;;;;;;;;14.84;100.00;100045.50;5070891;28;19939;-81
2022/06/09 00:49:34;;;;;;;;;;;;;;;14.94;100.00;100039.69;5073055;28;19935;-80
2022/06/09 00:52:10;;;;;;;;;;;;;;;14.98;100.00;100037.09;5071439;28;19924;-79
2022/06/09 00:54:42;;;;;;;;;;;;;;;14.96;100.00;100042.88;5070442;28;19924;-79
2022/06/09 00:57:18;;;;;;;;;;;;;;;14.94;100.00;100049.81;5082218;28;19935;-78
2022/06/09 00:59:52;;;;;;;;;;;;;;;14.96;100.00;100045.63;5072582;28;19936;-78
2022/06/09 01:02:20;;;;;;;;;;;;;;;14.98;100.00;100039.81;5069701;28;19935;-80
2022/06/09 01:04:54;;;;;;;;;;;;;;;14.91;100.00;100042.25;5069514;28;20411;-80
2022/06/09 01:07:30;;;;;;;;;;;;;;;14.91;100.00;100043.06;5061298;28;20288;-79
2022/06/09 01:10:06;;;;;;;;;;;;;;;14.84;100.00;100031.00;5070651;28;20374;-79
2022/06/09 01:12:40;;;;;;;;;;;;;;;14.87;100.00;100036.63;5073512;28;20326;-79
2022/06/09 01:15:15;;;;;;;;;;;;;;;14.87;100.00;100031.13;5072252;28;19932;-79
2022/06/09 01:17:53;;;;;;;;;;;;;;;14.86;100.00;100039.69;5071124;28;19934;-78
2022/06/09 01:20:26;;;;;;;;;;;;;;;14.85;100.00;100038.88;5061527;28;19929;-78
2022/06/09 01:23:09;;;;;;;;;;;;;;;14.83;100.00;100032.94;5064879;28;19935;-81
2022/06/09 01:25:59;;;;;;;;;;;;;;;14.87;100.00;100036.63;5075316;28;19932;-79
2022/06/09 01:28:44;;;;;;;;;;;;;;;14.88;100.00;100029.22;5068610;28;19925;-77
2022/06/09 01:31:25;;;;;;;;;;;;;;;14.85;100.00;100024.41;5069169;28;19925;-79
2022/06/09 01:33:57;;;;;;;;;;;;;;;14.83;100.00;100026.63;5075846;28;19932;-78
2022/06/09 01:36:33;;;;;;;;;;;;;;;14.85;100.00;100024.41;5067469;28;19925;-79
2022/06/09 01:39:06;;;;;;;;;;;;;;;14.64;100.00;100036.00;5073957;28;19932;-81
2022/06/09 01:41:34;;;;;;;;;;;;;;;14.55;100.00;100033.22;5076968;28;19936;-79
2022/06/09 01:44:07;;;;;;;;;;;;;;;14.63;100.00;100032.44;5065885;28;19924;-78
2022/06/09 01:46:37;;;;;;;;;;;;;;;14.66;100.00;100028.25;5069421;28;20283;-80
2022/06/09 01:49:12;;;;;;;;;;;;;;;14.67;100.00;100027.16;5067277;28;19931;-79
2022/06/09 01:51:46;;;;;;;;;;;;;;;14.53;100.00;100030.03;5073524;28;19928;-80
2022/06/09 01:54:21;;;;;;;;;;;;;;;14.56;100.00;100029.38;5070284;28;20304;-78
2022/06/09 01:56:56;;;;;;;;;;;;;;;14.53;100.00;100024.53;5063554;28;19936;-80
2022/06/09 01:59:33;;;;;;;;;;;;;;;14.66;100.00;100019.25;5067458;28;19928;-82
2022/06/09 02:02:12;;;;;;;;;;;;;;;14.69;100.00;100013.13;5066810;28;19928;-77
2022/06/09 02:04:46;;;;;;;;;;;;;;;14.69;100.00;100021.34;5070926;28;19928;-79
2022/06/09 02:07:20;;;;;;;;;;;;;;;14.68;100.00;100017.81;5071572;28;19947;-79
2022/06/09 02:09:48;;;;;;;;;;;;;;;14.69;100.00;100015.88;5068369;28;19939;-79
2022/06/09 02:12:23;;;;;;;;;;;;;;;14.63;100.00;100028.91;5078489;28;19928;-77
2022/06/09 02:14:53;;;;;;;;;;;;;;;14.60;100.00;100027.59;5066731;28;20041;-78
2022/06/09 02:17:27;;;;;;;;;;;;;;;14.51;100.00;100026.00;5071809;28;19933;-79
2022/06/09 02:19:55;;;;;;;;;;;;;;;14.38;100.00;100030.50;5067922;28;19931;-79
2022/06/09 02:22:29;;;;;;;;;;;;;;;14.39;100.00;100034.84;5070383;28;20114;-78
2022/06/09 02:25:02;;;;;;;;;;;;;;;14.46;100.00;100016.03;5065969;28;19935;-78
2022/06/09 02:27:35;;;;;;;;;;;;;;;14.36;100.00;100017.16;5062443;28;19935;-77
2022/06/09 02:30:08;;;;;;;;;;;;;;;14.37;100.00;100018.72;5069475;28;19928;-79
2022/06/09 02:32:42;;;;;;;;;;;;;;;14.42;100.00;100020.53;5073180;28;19935;-78
2022/06/09 02:35:15;;;;;;;;;;;;;;;14.36;100.00;100024.53;5064401;28;19932;-80
2022/06/09 02:37:48;;;;;;;;;;;;;;;14.32;100.00;100024.38;5070123;28;19929;-79
2022/06/09 02:40:21;;;;;;;;;;;;;;;14.25;100.00;100034.97;5059384;28;19929;-79
2022/06/09 02:42:49;;;;;;;;;;;;;;;14.28;100.00;100028.91;5066687;28;19948;-79
2022/06/09 02:45:17;;;;;;;;;;;;;;;14.29;100.00;100039.50;5086054;28;20396;-77
2022/06/09 02:47:51;;;;;;;;;;;;;;;14.24;100.00;100036.13;5062824;28;19924;-77
2022/06/09 02:50:25;;;;;;;;;;;;;;;14.20;100.00;100037.91;5069973;28;19928;-77
2022/06/09 02:52:59;;;;;;;;;;;;;;;14.17;100.00;100041.25;5066219;28;19929;-79
2022/06/09 02:55:27;;;;;;;;;;;;;;;14.20;100.00;100049.63;5070432;28;19929;-79
2022/06/09 02:58:01;;;;;;;;;;;;;;;14.21;100.00;100054.00;5064820;28;19929;-79
2022/06/09 03:00:34;;;;;;;;;;;;;;;14.17;100.00;100046.72;5056675;28;20303;-77
2022/06/09 03:03:11;;;;;;;;;;;;;;;14.21;100.00;100050.44;5073931;28;19928;-78
2022/06/09 03:05:39;;;;;;;;;;;;;;;14.22;100.00;100049.31;5071907;28;19938;-78
2022/06/09 03:08:12;;;;;;;;;;;;;;;14.18;100.00;100053.81;5069477;28;19983;-77
2022/06/09 03:10:45;;;;;;;;;;;;;;;14.19;100.00;100055.44;5062679;28;20373;-76
2022/06/09 03:13:13;;;;;;;;;;;;;;;14.11;100.00;100049.63;5072936;28;19924;-78
2022/06/09 03:15:41;;;;;;;;;;;;;;;14.12;100.00;100053.16;5073158;28;19925;-78
2022/06/09 03:18:10;;;;;;;;;;;;;;;14.18;100.00;100053.81;5068640;28;19925;-78
2022/06/09 03:20:38;;;;;;;;;;;;;;;14.18;100.00;100064.75;5074163;28;19935;-78
2022/06/09 03:23:11;;;;;;;;;;;;;;;14.12;100.00;100064.09;5073749;28;19925;-78
2022/06/09 03:25:44;;;;;;;;;;;;;;;14.06;100.00;100066.19;5068136;28;20385;-77
2022/06/09 03:28:12;;;;;;;;;;;;;;;14.08;100.00;100065.88;5070190;28;19932;-76
2022/06/09 03:30:45;;;;;;;;;;;;;;;14.08;100.00;100065.88;5076614;28;19929;-77
2022/06/09 03:33:19;;;;;;;;;;;;;;;14.09;100.00;100073.75;5072383;28;19940;-80
2022/06/09 03:35:52;;;;;;;;;;;;;;;14.09;100.00;100073.75;5065235;28;19929;-76
2022/06/09 03:38:25;;;;;;;;;;;;;;;14.04;100.00;100073.09;5064313;28;19924;-77
2022/06/09 03:40:58;;;;;;;;;;;;;;;13.98;100.00;100080.66;5065187;28;19961;-76
2022/06/09 03:43:26;;;;;;;;;;;;;;;14.00;100.00;100083.88;5071807;28;19935;-79
2022/06/09 03:45:54;;;;;;;;;;;;;;;13.99;100.00;100090.47;5078962;28;19925;-78
2022/06/09 03:48:29;;;;;;;;;;;;;;;14.01;100.00;100090.16;5069132;28;19924;-78
2022/06/09 03:51:02;;;;;;;;;;;;;;;14.04;100.00;100090.31;5071744;28;19951;-77
2022/06/09 03:53:34;;;;;;;;;;;;;;;13.95;100.00;100082.09;5065243;28;19925;-76
2022/06/09 03:56:12;;;;;;;;;;;;;;;14.02;100.00;100083.56;5075080;28;19925;-79
2022/06/09 03:58:45;;;;;;;;;;;;;;;14.08;100.00;100082.28;5070353;28;19924;-78
2022/06/09 04:01:17;;;;;;;;;;;;;;;14.10;100.00;100091.78;5075630;28;19929;-77
2022/06/09 04:03:51;;;;;;;;;;;;;;;14.09;100.00;100092.91;5077803;28;20404;-76
2022/06/09 04:06:25;;;;;;;;;;;;;;;14.02;100.00;100097.25;5073796;28;19925;-76
2022/06/09 04:09:01;;;;;;;;;;;;;;;14.07;100.00;100091.63;5066469;28;19932;-78
2022/06/09 04:11:34;;;;;;;;;;;;;;;14.09;100.00;100100.31;5061717;28;19925;-77
2022/06/09 04:14:02;;;;;;;;;;;;;;;14.07;100.00;100099.81;5084347;28;19933;-77
2022/06/09 04:16:36;;;;;;;;;;;;;;;14.05;100.00;100091.94;5076228;28;19924;-76
2022/06/09 04:19:12;;;;;;;;;;;;;;;14.14;100.00;100088.41;5071822;28;19928;-78
2022/06/09 04:21:41;;;;;;;;;;;;;;;14.09;100.00;100089.38;5074291;28;20273;-77
2022/06/09 04:24:13;;;;;;;;;;;;;;;14.15;100.00;100092.78;5072406;28;19931;-78
2022/06/09 04:26:46;;;;;;;;;;;;;;;14.14;100.00;100107.56;5074186;28;19924;-76
2022/06/09 04:29:19;;;;;;;;;;;;;;;14.18;100.00;100112.06;5074509;28;19924;-79
2022/06/09 04:31:47;;;;;;;;;;;;;;;14.14;100.00;100111.13;5079999;28;19924;-76
2022/06/09 04:34:17;;;;;;;;;;;;;;;14.12;100.00;100105.94;5076495;28;20293;-77
2022/06/09 04:36:50;;;;;;;;;;;;;;;14.07;100.00;100105.28;5080760;28;19929;-76
2022/06/09 04:39:18;;;;;;;;;;;;;;;14.05;100.00;100107.56;5070114;28;19925;-78
2022/06/09 04:41:50;;;;;;;;;;;;;;;14.01;100.00;100109.31;5075017;28;19929;-78
2022/06/09 04:44:24;;;;;;;;;;;;;;;13.96;100.00;100110.25;5069741;28;19924;-76
2022/06/09 04:46:56;;;;;;;;;;;;;;;14.04;100.00;100117.66;5069544;28;20445;-78
2022/06/09 04:49:26;;;;;;;;;;;;;;;14.13;100.00;100117.72;5083787;28;19925;-77
2022/06/09 04:51:54;;;;;;;;;;;;;;;14.24;100.00;100124.50;5075705;28;19929;-76
2022/06/09 04:54:28;;;;;;;;;;;;;;;14.29;100.00;100124.38;5065597;28;19940;-77
2022/06/09 04:56:57;;;;;;;;;;;;;;;14.43;100.00;100129.72;5068206;28;19940;-76
2022/06/09 04:59:30;;;;;;;;;;;;;;;14.39;100.00;100127.91;5080598;28;19935;-76
2022/06/09 05:02:03;;;;;;;;;;;;;;;14.32;100.00;100125.66;5073475;28;19924;-78
2022/06/09 05:04:37;;;;;;;;;;;;;;;14.33;100.00;100132.72;5071679;28;19931;-76
2022/06/09 05:07:10;;;;;;;;;;;;;;;14.36;100.00;100137.59;5071993;28;19936;-77
2022/06/09 05:09:43;;;;;;;;;;;;;;;14.40;100.00;100135.00;5076536;28;19924;-76
2022/06/09 05:12:11;;;;;;;;;;;;;;;14.35;100.00;100138.69;5081090;28;19944;-77
2022/06/09 05:14:44;;;;;;;;;;;;;;;14.38;100.00;100137.25;5082756;28;19945;-76
2022/06/09 05:17:12;;;;;;;;;;;;;;;14.37;100.00;100138.38;5066517;28;19932;-76
2022/06/09 05:19:46;;;;;;;;;;;;;;;14.38;100.00;100145.47;5070920;28;19931;-77
2022/06/09 05:22:19;;;;;;;;;;;;;;;14.47;100.00;100149.03;5068248;28;20392;-76
2022/06/09 05:24:52;;;;;;;;;;;;;;;14.52;100.00;100151.63;5069809;28;19924;-76
2022/06/09 05:27:25;;;;;;;;;;;;;;;14.66;100.00;100153.44;5071628;28;19931;-76
2022/06/09 05:29:53;;;;;;;;;;;;;;;14.70;100.00;100159.91;5068769;28;19947;-75
2022/06/09 05:32:22;;;;;;;;;;;;;;;14.81;100.00;100147.50;5068467;28;19959;-81
2022/06/09 05:34:56;;;;;;;;;;;;;;;14.81;100.00;100158.44;5075974;28;19931;-77
2022/06/09 05:44:50;;;;;;;;;;;;;;;14.92;100.00;100153.47;5072853;28;19925;-76
2022/06/09 05:46:07;;;;;;;;;;;;;;;15.04;100.00;100163.75;5070499;28;19931;-75
2022/06/09 05:48:36;;;;;;;;;;;;;;;15.21;100.00;100165.72;5072441;28;19924;-75
2022/06/09 05:51:05;;;;;;;;;;;;;;;15.22;100.00;100167.31;5072274;28;19925;-76
2022/06/09 05:53:38;;;;;;;;;;;;;;;15.18;100.00;100171.81;5067254;28;19925;-77
2022/06/09 05:56:11;;;;;;;;;;;;;;;15.20;100.00;100188.75;5088152;28;19932;-77
2022/06/09 05:58:40;;;;;;;;;;;;;;;15.17;100.00;100186.69;5078730;28;20391;-77
2022/06/09 06:01:13;;;;;;;;;;;;;;;15.17;100.00;100192.16;5066836;28;19935;-79
2022/06/09 06:03:42;;;;;;;;;;;;;;;15.07;100.00;100191.34;5071469;28;20464;-78
2022/06/09 06:09:03;;;;;;;;;;;;;;;15.07;100.00;100202.31;5069609;28;19928;-78
2022/06/09 06:11:36;;;;;;;;;;;;;;;15.21;100.00;100206.81;5067826;28;19931;-80
2022/06/09 06:14:10;;;;;;;;;;;;;;;15.17;100.00;100206.66;5076915;28;20277;-78
2022/06/09 06:16:43;;;;;;;;;;;;;;;15.20;100.00;100206.00;5071481;28;20415;-78
2022/06/09 06:19:17;;;;;;;;;;;;;;;15.26;100.00;100209.38;5069172;28;19940;-78
2022/06/09 06:21:53;;;;;;;;;;;;;;;15.31;100.00;100211.97;5071825;28;19936;-78
2022/06/09 06:24:23;;;;;;;;;;;;;;;15.25;100.00;100214.06;5067931;28;21506;-77
2022/06/09 06:26:51;;;;;;;;;;;;;;;15.24;100.00;100226.16;5066029;28;19932;-79
2022/06/09 06:29:25;;;;;;;;;;;;;;;15.28;100.00;100224.38;5068578;28;19996;-78
2022/06/09 06:31:58;;;;;;;;;;;;;;;15.35;100.00;100231.34;5068557;28;19929;-77
2022/06/09 06:34:31;;;;;;;;;;;;;;;15.40;100.00;100231.19;5064577;28;19933;-79
2022/06/09 06:37:05;;;;;;;;;;;;;;;15.32;100.00;100230.03;5062080;28;19924;-82
2022/06/09 06:39:38;;;;;;;;;;;;;;;15.24;100.00;100236.31;5040852;28;20364;-79
2022/06/09 06:42:11;;;;;;;;;;;;;;;15.19;100.00;100236.47;5040855;28;20523;-82
2022/06/09 06:44:44;;;;;;;;;;;;;;;15.26;100.00;100242.28;5038246;28;19924;-79
2022/06/09 06:47:12;;;;;;;;;;;;;;;15.29;100.00;100242.44;5046309;28;19932;-81
2022/06/09 06:49:45;;;;;;;;;;;;;;;15.23;100.00;100254.72;5045162;28;19932;-79
2022/06/09 06:52:14;;;;;;;;;;;;;;;15.20;100.00;100255.34;5039959;28;20461;-77
2022/06/09 06:54:47;;;;;;;;;;;;;;;15.22;100.00;100257.75;5041665;28;20408;-79
2022/06/09 06:57:20;;;;;;;;;;;;;;;15.14;100.00;100256.63;5043439;28;19932;-81
2022/06/09 06:59:53;;;;;;;;;;;;;;;15.10;100.00;100256.47;5054447;28;20019;-79
2022/06/09 07:02:21;;;;;;;;;;;;;;;15.14;100.00;100262.13;5045988;28;19932;-82
2022/06/09 07:04:54;;;;;;;;;;;;;;;15.14;100.00;100251.16;5046721;28;19933;-80
2022/06/09 07:07:24;;;;;;;;;;;;;;;15.16;100.00;100264.53;5051669;28;20308;-79
2022/06/09 07:09:53;;;;;;;;;;;;;;;15.19;100.00;100266.63;5054018;28;20333;-84
2022/06/09 07:12:26;;;;;;;;;;;;;;;15.19;100.00;100270.19;5042346;28;19947;-79
2022/06/09 07:14:59;;;;;;;;;;;;;;;15.19;100.00;100272.94;5044866;28;20308;-81
2022/06/09 07:17:31;;;;;;;;;;;;;;;15.16;100.00;100267.28;5044483;28;21195;-80
2022/06/09 07:20:05;;;;;;;;;;;;;;;15.14;100.00;100273.88;5042459;28;19940;-79
2022/06/09 07:22:39;;;;;;;;;;;;;;;15.10;100.00;100277.59;5046593;28;19940;-80
2022/06/09 07:25:15;;;;;;;;;;;;;;;15.21;100.00;100289.06;5045247;28;19940;-82
2022/06/09 07:27:43;;;;;;;;;;;;;;;15.28;100.00;100279.22;5041372;28;19948;-80
2022/06/09 07:30:16;;;;;;;;;;;;;;;15.57;100.00;100286.00;5045016;28;19924;-81
2022/06/09 07:32:44;;;;;;;;;;;;;;;15.91;100.00;100281.66;5042142;28;19933;-83
2022/06/09 07:35:19;;;;;;;;;;;;;;;15.88;100.00;100292.47;5041253;28;19932;-84
2022/06/09 07:37:54;;;;;;;;;;;;;;;16.05;100.00;100292.44;5047987;28;19933;-80
2022/06/09 07:40:22;;;;;;;;;;;;;;;16.19;100.00;100289.50;5043902;28;20994;-81
2022/06/09 07:42:50;;;;;;;;;;;;;;;16.38;100.00;100291.84;5056955;28;19933;-85
2022/06/09 07:45:24;;;;;;;;;;;;;;;16.30;100.00;100303.69;5063722;28;19933;-80
2022/06/09 07:47:52;;;;;;;;;;;;;;;16.54;100.00;100302.28;5055591;28;20384;-82
2022/06/09 07:50:25;;;;;;;;;;;;;;;16.57;100.00;100302.44;5062189;28;19933;-83
2022/06/09 07:53:00;;;;;;;;;;;;;;;16.88;100.00;100295.81;5039815;28;19933;-82
2022/06/09 07:55:36;;;;;;;;;;;;;;;17.00;100.00;100304.19;5032862;28;19932;-80
2022/06/09 07:58:09;;;;;;;;;;;;;;;16.93;100.00;100317.66;5054033;28;19936;-80
2022/06/09 08:00:42;;;;;;;;;;;;;;;16.76;100.00;100313.00;5052893;28;21961;-81
2022/06/09 08:03:16;;;;;;;;;;;;;;;16.85;100.00;100321.22;5037772;28;19933;-78
2022/06/09 08:05:50;;;;;;;;;;;;;;;16.81;100.00;100320.28;5035066;28;20002;-79
2022/06/09 08:08:21;;;;;;;;;;;;;;;16.79;100.00;100328.84;5041305;28;19932;-83
2022/06/09 08:10:54;;;;;;;;;;;;;;;16.93;100.00;100330.59;5054693;28;20562;-82
2022/06/09 08:13:27;;;;;;;;;;;;;;;16.88;100.00;100328.81;5043764;28;19940;-83
2022/06/09 08:16:01;;;;;;;;;;;;;;;16.85;100.00;100337.72;5059148;28;19933;-80
2022/06/09 08:18:34;;;;;;;;;;;;;;;16.72;100.00;100336.00;5032237;28;19932;-81
2022/06/09 08:21:07;;;;;;;;;;;;;;;16.64;100.00;100343.94;5034582;28;19944;-79
2022/06/09 08:23:54;;;;;;;;;;;;;;;16.40;100.00;100349.19;5036805;28;19932;-82
2022/06/09 08:26:22;;;;;;;;;;;;;;;16.40;100.00;100351.94;5035386;28;19940;-82
2022/06/09 08:28:55;;;;;;;;;;;;;;;16.55;100.00;100347.88;5033414;28;19939;-80
2022/06/09 08:31:25;;;;;;;;;;;;;;;16.64;100.00;100351.38;5032110;28;19932;-80
2022/06/09 08:33:52;;;;;;;;;;;;;;;16.77;100.00;100353.09;5033446;28;19951;-85
2022/06/09 08:36:20;;;;;;;;;;;;;;;16.94;100.00;100354.97;5031012;28;19935;-81
2022/06/09 08:38:48;;;;;;;;;;;;;;;17.26;100.00;100357.41;5037058;28;20401;-78
2022/06/09 08:41:35;;;;;;;;;;;;;;;17.38;100.00;100353.94;5047136;28;19933;-80
2022/06/09 08:44:09;;;;;;;;;;;;;;;17.19;100.00;100368.13;5049785;28;19959;-81
2022/06/09 08:46:45;;;;;;;;;;;;;;;16.87;100.00;100376.66;5047280;28;20003;-81
2022/06/09 08:49:36;;;;;;;;;;;;;;;16.75;100.00;100380.13;5043176;28;19935;-83
2022/06/09 08:52:06;;;;;;;;;;;;;;;16.45;100.00;100384.72;5045302;28;20615;-83
2022/06/09 08:54:36;;;;;;;;;;;;;;;16.41;100.00;100386.53;5059973;28;20392;-80
2022/06/09 08:57:13;;;;;;;;;;;;;;;16.32;100.00;100398.31;5048625;28;19951;-81
2022/06/09 08:59:50;;;;;;;;;;;;;;;16.44;100.00;100400.38;5060889;28;19933;-77
2022/06/09 09:02:28;;;;;;;;;;;;;;;16.63;100.00;100396.47;5047409;28;19944;-82
2022/06/09 09:05:02;;;;;;;;;;;;;;;16.57;100.00;100398.59;5037989;28;19939;-82
2022/06/09 09:07:36;;;;;;;;;;;;;;;16.59;100.00;100404.56;5040444;28;19939;-83
2022/06/09 09:10:12;;;;;;;;;;;;;;;16.64;100.00;100406.31;5038959;28;19933;-79
2022/06/09 09:12:51;;;;;;;;;;;;;;;16.58;100.00;100410.38;5043043;28;19928;-81
2022/06/09 09:15:27;;;;;;;;;;;;;;;16.63;100.00;100419.25;5033269;28;19940;-79
2022/06/09 09:18:06;;;;;;;;;;;;;;;16.65;100.00;100414.25;5040162;28;19928;-80
2022/06/09 09:20:41;;;;;;;;;;;;;;;16.82;100.00;100416.13;5043950;28;19928;-79
2022/06/09 09:23:10;;;;;;;;;;;;;;;17.07;100.00;100430.13;5035057;28;19940;-81
2022/06/09 09:25:45;;;;;;;;;;;;;;;17.16;100.00;100422.63;5033549;28;20339;-79
2022/06/09 09:28:22;;;;;;;;;;;;;;;17.27;100.00;100425.81;5042979;28;20514;-83
2022/06/09 09:31:00;;;;;;;;;;;;;;;17.10;100.00;100437.72;5044488;28;19940;-81
2022/06/09 09:33:36;;;;;;;;;;;;;;;17.20;100.00;100424.75;5054627;28;21383;-82
2022/06/09 09:36:18;;;;;;;;;;;;;;;17.43;100.00;100431.56;5052284;28;19932;-80
2022/06/09 09:38:53;;;;;;;;;;;;;;;17.71;100.00;100431.06;5039379;28;19932;-79
2022/06/09 09:41:27;;;;;;;;;;;;;;;17.78;100.00;100425.84;5048945;28;19939;-80
2022/06/09 09:43:57;;;;;;;;;;;;;;;18.10;100.00;100431.78;5049201;28;19933;-78
2022/06/09 09:46:32;;;;;;;;;;;;;;;17.98;100.00;100434.47;5042518;28;19933;-84
2022/06/09 09:49:01;;;;;;;;;;;;;;;17.71;100.00;100435.78;5040799;28;20326;-82
2022/06/09 09:51:34;;;;;;;;;;;;;;;17.94;100.00;100439.03;5034718;28;19933;-82
2022/06/09 09:54:09;;;;;;;;;;;;;;;18.00;100.00;100444.00;5039490;28;19932;-81
2022/06/09 09:56:38;;;;;;;;;;;;;;;18.12;100.00;100443.28;5033204;28;19951;-80
2022/06/09 09:59:19;;;;;;;;;;;;;;;18.30;100.00;100449.44;5039098;28;20745;-84
2022/06/09 10:08:38;;;;;;;;;;;;;;;18.48;100.00;100461.09;5031896;28;19939;-82
2022/06/09 10:14:27;;;;;;;;;;;;;;;18.67;100.00;100466.09;5037051;28;19944;-81
2022/06/09 10:17:21;;;;;;;;;;;;;;;18.59;100.00;100468.94;5035132;28;20777;-78
2022/06/09 10:20:22;;;;;;;;;;;;;;;18.55;100.00;100474.31;5034574;28;20478;-84
2022/06/09 10:22:57;;;;;;;;;;;;;;;18.55;100.00;100477.09;5039860;28;20329;-82
2022/06/09 10:25:36;;;;;;;;;;;;;;;18.40;100.00;100478.50;5061511;28;20908;-83
2022/06/09 10:28:07;;;;;;;;;;;;;;;18.26;100.00;100478.00;5033265;28;19933;-86
2022/06/09 10:30:41;;;;;;;;;;;;;;;18.25;100.00;100485.44;5032938;28;19943;-80
2022/06/09 10:33:14;;;;;;;;;;;;;;;18.40;100.00;100485.97;5031471;28;20673;-84
2022/06/09 10:35:50;;;;;;;;;;;;;;;18.56;100.00;100483.38;5048295;28;19939;-80
2022/06/09 10:38:26;;;;;;;;;;;;;;;18.79;100.00;100487.38;5052117;28;19933;-82
2022/06/09 10:41:01;;;;;;;;;;;;;;;19.08;100.00;100484.81;5031952;28;19929;-81
2022/06/09 10:43:36;;;;;;;;;;;;;;;18.67;100.00;100487.31;5064695;28;19963;-82
2022/06/09 10:46:20;;;;;;;;;;;;;;;18.66;100.00;100494.81;5041433;28;19939;-81
2022/06/09 10:57:31;;;;;;;;;;;;;;;19.39;100.00;100484.28;5035802;28;20297;-80
2022/06/09 11:00:09;;;;;;;;;;;;;;;18.88;100.00;100483.75;5037251;28;19940;-80
2022/06/09 11:02:47;;;;;;;;;;;;;;;18.62;100.00;100501.34;5052492;28;20320;-79
2022/06/09 11:05:23;;;;;;;;;;;;;;;19.11;100.00;100500.69;5039104;28;19940;-81
2022/06/09 11:07:55;;;;;;;;;;;;;;;18.96;100.00;100502.97;5043535;28;19940;-84
2022/06/09 11:10:30;;;;;;;;;;;;;;;18.73;100.00;100508.03;5037830;28;19947;-80
2022/06/09 11:13:22;;;;;;;;;;;;;;;19.42;100.00;100502.91;5047331;28;21223;-79
2022/06/09 11:16:01;;;;;;;;;;;;;;;19.62;100.00;100505.91;5030586;28;19939;-82
2022/06/09 11:18:40;;;;;;;;;;;;;;;19.57;100.00;100508.88;5032463;28;20497;-84
2022/06/09 11:21:17;;;;;;;;;;;;;;;19.99;100.00;100506.69;5035517;28;19962;-80
2022/06/09 11:23:58;;;;;;;;;;;;;;;20.04;100.00;100523.03;5033885;28;19932;-79
2022/06/09 11:26:29;;;;;;;;;;;;;;;20.12;100.00;100517.72;5053834;28;19933;-79
2022/06/09 11:29:05;;;;;;;;;;;;;;;19.97;100.00;100520.06;5056003;28;19937;-82
2022/06/09 11:31:50;;;;;;;;;;;;;;;19.85;100.00;100531.09;5042036;28;19939;-82
2022/06/09 11:34:35;;;;;;;;;;;;;;;19.92;100.00;100531.31;5037101;28;19939;-81
2022/06/09 11:37:14;;;;;;;;;;;;;;;20.09;100.00;100523.94;5043929;28;19928;-83
2022/06/09 11:39:57;;;;;;;;;;;;;;;20.65;100.00;100528.72;5039286;28;19933;-82
2022/06/09 11:42:42;;;;;;;;;;;;;;;19.99;100.00;100539.81;5033620;28;19943;-80
2022/06/09 11:45:25;;;;;;;;;;;;;;;19.76;100.00;100547.78;5032606;28;20392;-81
2022/06/09 11:48:00;;;;;;;;;;;;;;;20.20;100.00;100534.16;5056945;28;19939;-80
2022/06/09 11:50:36;;;;;;;;;;;;;;;19.93;100.00;100548.69;5033681;28;19933;-82
2022/06/09 11:53:04;;;;;;;;;;;;;;;19.39;100.00;100542.25;5055896;28;20774;-81
2022/06/09 11:58:46;;;;;;;;;;;;;;;19.67;100.00;100552.59;5035875;28;20497;-83
2022/06/09 12:01:29;;;;;;;;;;;;;;;20.22;100.00;100547.63;5065692;28;19933;-80
2022/06/09 12:04:29;;;;;;;;;;;;;;;19.64;100.00;100558.81;5033834;28;20412;-82
2022/06/09 12:07:26;;;;;;;;;;;;;;;19.82;100.00;100554.69;4995841;28;19933;-80
2022/06/09 12:10:19;;;;;;;;;;;;;;;19.45;100.00;100551.88;5017288;28;21257;-81
2022/06/09 12:13:05;;;;;;;;;;;;;;;19.40;100.00;100563.13;5037689;28;19929;-83
2022/06/09 12:15:48;;;;;;;;;;;;;;;19.96;100.00;100564.59;5063083;28;20300;-80
2022/06/09 12:18:44;;;;;;;;;;;;;;;20.15;100.00;100555.69;5040149;28;19944;-82
2022/06/09 12:21:14;;;;;;;;;;;;;;;20.46;100.00;100559.78;5029483;28;20635;-80
2022/06/09 12:24:02;;;;;;;;;;;;;;;20.82;100.00;100569.13;5038487;28;20295;-83
2022/06/09 12:26:49;;;;;;;;;;;;;;;20.69;100.00;100562.84;5038216;28;19932;-79
2022/06/09 12:29:40;;;;;;;;;;;;;;;20.57;100.00;100571.94;5035405;28;19939;-81
2022/06/09 12:32:30;;;;;;;;;;;;;;;20.29;100.00;100572.72;5045776;28;19932;-83
2022/06/09 12:35:04;;;;;;;;;;;;;;;20.05;100.00;100598.41;5031293;28;19947;-80
2022/06/09 12:37:39;;;;;;;;;;;;;;;19.88;100.00;100586.44;5030623;28;19932;-79
2022/06/09 12:40:17;;;;;;;;;;;;;;;19.49;100.00;100593.41;5036098;28;19932;-81
2022/06/09 12:42:54;;;;;;;;;;;;;;;20.10;100.00;100598.16;5038455;28;20372;-80
2022/06/09 12:45:28;;;;;;;;;;;;;;;19.77;100.00;100596.31;5035411;28;19932;-85
2022/06/09 12:47:58;;;;;;;;;;;;;;;20.26;100.00;100598.28;5073745;28;20387;-80
2022/06/09 12:50:38;;;;;;;;;;;;;;;20.03;100.00;100598.75;5037930;28;19933;-83
2022/06/09 12:53:18;;;;;;;;;;;;;;;20.41;100.00;100607.00;5044718;28;19940;-79
2022/06/09 12:55:53;;;;;;;;;;;;;;;20.31;100.00;100600.78;5033931;28;19940;-81
2022/06/09 12:58:32;;;;;;;;;;;;;;;20.12;100.00;100620.75;5035457;28;19932;-78
2022/06/09 13:01:01;;;;;;;;;;;;;;;19.61;100.00;100632.09;5044581;28;19939;-80
2022/06/09 13:03:35;;;;;;;;;;;;;;;19.48;100.00;100625.72;5035819;28;19933;-83
2022/06/09 13:06:11;;;;;;;;;;;;;;;19.71;100.00;100628.84;5055091;28;19944;-79
2022/06/09 13:08:45;;;;;;;;;;;;;;;19.99;100.00;100630.97;5042909;28;19932;-83
2022/06/09 13:11:20;;;;;;;;;;;;;;;20.37;100.00;100640.06;5039084;28;19933;-78
2022/06/09 13:13:55;;;;;;;;;;;;;;;20.62;100.00;100623.41;5035753;28;19933;-81
2022/06/09 13:16:30;;;;;;;;;;;;;;;21.12;100.00;100632.38;5041692;28;20142;-78
2022/06/09 13:19:04;;;;;;;;;;;;;;;21.44;100.00;100641.53;5037390;28;19933;-80
2022/06/09 13:21:34;;;;;;;;;;;;;;;21.07;100.00;100638.97;5033857;28;19932;-81
2022/06/09 13:24:08;;;;;;;;;;;;;;;21.41;100.00;100636.72;5035331;28;20334;-81
2022/06/09 13:26:43;;;;;;;;;;;;;;;21.32;100.00;100645.22;5041274;28;20653;-82
2022/06/09 13:29:21;;;;;;;;;;;;;;;20.88;100.00;100642.38;5032490;28;19939;-82
2022/06/09 13:32:09;;;;;;;;;;;;;;;20.64;100.00;100640.47;5037193;28;19932;-79
2022/06/09 13:34:43;;;;;;;;;;;;;;;20.80;100.00;100637.78;5057294;28;19933;-81